Liberty of The Seas — C6VQ8 — position and weather

sailwx.info

Track history (hours):
 
Tides and Currents Weather Stations Pressure Air Temp Water Temp Dewpoint Dewpoint Depression Visibility Wind Speed Wind Dir Waves Ship Positions

Liberty of The Seas

Last reported at 2015-Jan-27 01:15 UTC. Time now 2015-Jan-27 12:32 UTC.
Position N 25°47' W 080°02'.

Type: Passenger vessel. MMSI: 309436000.

Date/timePositionNaut miles runAvg speedWind from/ knotsBaromVisibWave heightAir tempDewpointWater temp
2015-Jan-27 01:15N 25°47' W 080°02'1115.2
2015-Jan-27 00:33N 25°57' W 080°02'9 9.3
2015-Jan-26 23:33N 26°05' W 080°07'0 0.0
2015-Jan-26 22:26N 26°05' W 080°07'0 0.0
2015-Jan-26 21:26N 26°05' W 080°07'0 0.0
2015-Jan-26 20:29N 26°05' W 080°07'0 0.0
2015-Jan-26 19:27N 26°05' W 080°07'0 0.0
2015-Jan-26 18:29N 26°05' W 080°07'0 0.0
2015-Jan-26 17:32N 26°05' W 080°07'0 0.0
2015-Jan-26 16:32N 26°05' W 080°07'0 0.0
2015-Jan-26 15:32N 26°05' W 080°07'0 0.0
2015-Jan-26 14:32N 26°05' W 080°07'0 0.0
2015-Jan-26 13:32N 26°05' W 080°07'0 0.0
2015-Jan-26 12:20N 26°05' W 080°07'0 0.3
2015-Jan-26 11:33N 26°06' W 080°07'10 9.5
2015-Jan-26 10:33N 25°60' W 079°58'2222.3
2015-Jan-26 09:33N 25°38' W 079°53'  
2015-Jan-22 23:29N 25°50' W 080°03'1515.6
2015-Jan-22 22:34N 26°04' W 080°04'2 2.4
2015-Jan-22 21:32N 26°05' W 080°07'0 0.0
2015-Jan-22 20:32N 26°05' W 080°07'0 0.0
2015-Jan-22 19:32N 26°05' W 080°07'0 0.0
2015-Jan-22 18:32N 26°05' W 080°07'0 0.0
2015-Jan-22 17:32N 26°05' W 080°07'0 0.0
2015-Jan-22 16:32N 26°05' W 080°07'0 0.0
2015-Jan-22 15:32N 26°05' W 080°07'0 0.0
2015-Jan-22 14:20N 26°05' W 080°07'0 0.0
2015-Jan-22 13:23N 26°05' W 080°07'0 0.0
2015-Jan-22 12:26N 26°05' W 080°07'0 0.3
2015-Jan-22 11:33N 26°06' W 080°07'9 8.8
2015-Jan-22 10:33N 26°02' W 079°58'1413.9
2015-Jan-22 09:33N 25°49' W 079°54'50315.2
2015-Jan-21 00:33N 20°31' W 086°59'2 1.9
2015-Jan-20 23:23N 20°29' W 086°59'0 0.0
2015-Jan-20 22:32N 20°29' W 086°59'0 0.0
2015-Jan-20 21:32N 20°29' W 086°59'0 0.0
2015-Jan-20 20:26N 20°29' W 086°59'0 0.0
2015-Jan-20 19:32N 20°29' W 086°59'0 0.0
2015-Jan-20 18:32N 20°29' W 086°59'0 0.0
2015-Jan-20 17:32N 20°29' W 086°59'0 0.0
2015-Jan-20 16:32N 20°29' W 086°59'0 0.0
2015-Jan-20 15:29N 20°29' W 086°59'0 0.0
2015-Jan-20 14:29N 20°29' W 086°59'1 1.1
2015-Jan-20 13:33N 20°29' W 086°60'  
2015-Jan-17 23:33N 25°43' W 080°02'2019.9
2015-Jan-17 22:33N 26°02' W 080°04'4 4.3
2015-Jan-17 21:33N 26°05' W 080°07'0 0.0
2015-Jan-17 20:33N 26°05' W 080°07'0 0.0
2015-Jan-17 19:24N 26°05' W 080°07'0 0.0
2015-Jan-17 18:27N 26°05' W 080°07'0 0.0
2015-Jan-17 17:27N 26°05' W 080°07'0 0.0
2015-Jan-17 16:27N 26°05' W 080°07'0 0.0
2015-Jan-17 15:30N 26°05' W 080°07'0 0.0
2015-Jan-17 14:30N 26°05' W 080°07'0 0.0
2015-Jan-17 13:30N 26°05' W 080°07'0 0.0
2015-Jan-17 12:33N 26°05' W 080°07'0 0.3
2015-Jan-17 11:33N 26°06' W 080°07'9 8.9
2015-Jan-17 10:33N 25°60' W 079°59'1817.5
2015-Jan-17 09:33N 25°43' W 079°53'  
Track history (hours):
 
Tides and Currents Weather Stations Pressure Air Temp Water Temp Dewpoint Dewpoint Depression Visibility Wind Speed Wind Dir Waves Ship Positions

Liberty of The Seas

Last reported at 2015-Jan-27 01:15 UTC. Time now 2015-Jan-27 12:32 UTC.
Position N 25°47' W 080°02'.

Type: Passenger vessel. MMSI: 309436000.

Date/timePositionNaut miles runAvg speedWind from/ knotsBaromVisibWave heightAir tempDewpointWater temp
2015-Jan-27 01:15N 25°47' W 080°02'1115.2
2015-Jan-27 00:33N 25°57' W 080°02'9 9.3
2015-Jan-26 23:33N 26°05' W 080°07'0 0.0
2015-Jan-26 22:26N 26°05' W 080°07'0 0.0
2015-Jan-26 21:26N 26°05' W 080°07'0 0.0
2015-Jan-26 20:29N 26°05' W 080°07'0 0.0
2015-Jan-26 19:27N 26°05' W 080°07'0 0.0
2015-Jan-26 18:29N 26°05' W 080°07'0 0.0
2015-Jan-26 17:32N 26°05' W 080°07'0 0.0
2015-Jan-26 16:32N 26°05' W 080°07'0 0.0
2015-Jan-26 15:32N 26°05' W 080°07'0 0.0
2015-Jan-26 14:32N 26°05' W 080°07'0 0.0
2015-Jan-26 13:32N 26°05' W 080°07'0 0.0
2015-Jan-26 12:20N 26°05' W 080°07'0 0.3
2015-Jan-26 11:33N 26°06' W 080°07'10 9.5
2015-Jan-26 10:33N 25°60' W 079°58'2222.3
2015-Jan-26 09:33N 25°38' W 079°53'  
2015-Jan-22 23:29N 25°50' W 080°03'1515.6
2015-Jan-22 22:34N 26°04' W 080°04'2 2.4
2015-Jan-22 21:32N 26°05' W 080°07'0 0.0
2015-Jan-22 20:32N 26°05' W 080°07'0 0.0
2015-Jan-22 19:32N 26°05' W 080°07'0 0.0
2015-Jan-22 18:32N 26°05' W 080°07'0 0.0
2015-Jan-22 17:32N 26°05' W 080°07'0 0.0
2015-Jan-22 16:32N 26°05' W 080°07'0 0.0
2015-Jan-22 15:32N 26°05' W 080°07'0 0.0
2015-Jan-22 14:20N 26°05' W 080°07'0 0.0
2015-Jan-22 13:23N 26°05' W 080°07'0 0.0
2015-Jan-22 12:26N 26°05' W 080°07'0 0.3
2015-Jan-22 11:33N 26°06' W 080°07'9 8.8
2015-Jan-22 10:33N 26°02' W 079°58'1413.9
2015-Jan-22 09:33N 25°49' W 079°54'50315.2
2015-Jan-21 00:33N 20°31' W 086°59'2 1.9
2015-Jan-20 23:23N 20°29' W 086°59'0 0.0
2015-Jan-20 22:32N 20°29' W 086°59'0 0.0
2015-Jan-20 21:32N 20°29' W 086°59'0 0.0
2015-Jan-20 20:26N 20°29' W 086°59'0 0.0
2015-Jan-20 19:32N 20°29' W 086°59'0 0.0
2015-Jan-20 18:32N 20°29' W 086°59'0 0.0
2015-Jan-20 17:32N 20°29' W 086°59'0 0.0
2015-Jan-20 16:32N 20°29' W 086°59'0 0.0
2015-Jan-20 15:29N 20°29' W 086°59'0 0.0
2015-Jan-20 14:29N 20°29' W 086°59'1 1.1
2015-Jan-20 13:33N 20°29' W 086°60'  
2015-Jan-17 23:33N 25°43' W 080°02'2019.9
2015-Jan-17 22:33N 26°02' W 080°04'4 4.3
2015-Jan-17 21:33N 26°05' W 080°07'0 0.0
2015-Jan-17 20:33N 26°05' W 080°07'0 0.0
2015-Jan-17 19:24N 26°05' W 080°07'0 0.0
2015-Jan-17 18:27N 26°05' W 080°07'0 0.0
2015-Jan-17 17:27N 26°05' W 080°07'0 0.0
2015-Jan-17 16:27N 26°05' W 080°07'0 0.0
2015-Jan-17 15:30N 26°05' W 080°07'0 0.0
2015-Jan-17 14:30N 26°05' W 080°07'0 0.0
2015-Jan-17 13:30N 26°05' W 080°07'0 0.0
2015-Jan-17 12:33N 26°05' W 080°07'0 0.3
2015-Jan-17 11:33N 26°06' W 080°07'9 8.9
2015-Jan-17 10:33N 25°60' W 079°59'1817.5
2015-Jan-17 09:33N 25°43' W 079°53'  

Dump ship's entire track history